Time;durP1;ratioP1;P1;durP2;ratioP2;P2;SDS_P1;SDS_P2;PMS_P1;PMS_P2;Temp;Humidity;BMP_temperature;BMP_pressure;BME280_temperature;BME280_humidity;BME280_pressure;Samples;Min_cycle;Max_cycle;Signal;HPM_P1;HPM_P2
2022/12/26 00:02:06;;;;;;;;;;;;;;;8.39;100.00;96202.94;4925663;29;20297;-82
2022/12/26 00:04:31;;;;;;;;;;;;;;;8.39;100.00;96207.38;4932537;29;19921;-82
2022/12/26 00:06:57;;;;;;;;;;;;;;;8.35;100.00;96209.44;4923908;29;20500;-82
2022/12/26 00:09:25;;;;;;;;;;;;;;;8.34;100.00;96199.06;4903242;29;19923;-82
2022/12/26 00:11:51;;;;;;;;;;;;;;;8.32;100.00;96203.66;4902133;29;20293;-82
2022/12/26 00:14:16;;;;;;;;;;;;;;;8.26;100.00;96220.78;4907595;29;19911;-82
2022/12/26 00:16:43;;;;;;;;;;;;;;;8.27;100.00;96217.16;4902335;29;19950;-82
2022/12/26 00:19:09;;;;;;;;;;;;;;;8.22;100.00;96225.47;4915555;29;20302;-82
2022/12/26 00:21:34;;;;;;;;;;;;;;;8.18;100.00;96224.13;4916307;29;19923;-82
2022/12/26 00:24:13;;;;;;;;;;;;;;;8.25;100.00;96222.56;4917060;29;19925;-82
2022/12/26 00:26:39;;;;;;;;;;;;;;;8.25;100.00;96229.59;4907399;29;19919;-82
2022/12/26 00:29:06;;;;;;;;;;;;;;;8.32;100.00;96229.84;4916928;29;19929;-82
2022/12/26 00:31:32;;;;;;;;;;;;;;;8.22;100.00;96225.47;4906160;29;20004;-82
2022/12/26 00:33:58;;;;;;;;;;;;;;;8.27;100.00;96219.78;4914820;29;19918;-81
2022/12/26 00:36:30;;;;;;;;;;;;;;;8.33;100.00;96221.84;4902428;29;19966;-81
2022/12/26 00:38:57;;;;;;;;;;;;;;;8.45;100.00;96225.09;4916958;29;19918;-82
2022/12/26 00:41:23;;;;;;;;;;;;;;;8.47;100.00;96223.16;4922945;29;19969;-82
2022/12/26 00:44:09;;;;;;;;;;;;;;;8.44;100.00;96236.56;4898388;29;19918;-82
2022/12/26 00:46:34;;;;;;;;;;;;;;;8.48;100.00;96230.06;4922809;29;19965;-82
2022/12/26 00:49:00;;;;;;;;;;;;;;;8.52;100.00;96230.59;4917023;29;19926;-81
2022/12/26 00:51:26;;;;;;;;;;;;;;;8.43;100.00;96224.44;4937174;29;20030;-82
2022/12/26 00:53:52;;;;;;;;;;;;;;;8.46;100.00;96226.78;4909548;29;19925;-81
2022/12/26 00:56:17;;;;;;;;;;;;;;;8.45;100.00;96230.34;4954794;29;19918;-82
2022/12/26 00:58:43;;;;;;;;;;;;;;;8.50;100.00;96230.75;4902713;29;19919;-82
2022/12/26 01:01:11;;;;;;;;;;;;;;;8.53;100.00;96232.25;4899356;29;20006;-82
2022/12/26 01:03:37;;;;;;;;;;;;;;;8.46;100.00;96234.63;4928203;29;19914;-81
2022/12/26 01:06:06;;;;;;;;;;;;;;;8.41;100.00;96236.84;4916372;29;20068;-82
2022/12/26 01:08:31;;;;;;;;;;;;;;;8.27;100.00;96238.94;4906806;29;19923;-81
2022/12/26 01:11:01;;;;;;;;;;;;;;;8.31;100.00;96236.03;4915805;29;19918;-81
2022/12/26 01:13:26;;;;;;;;;;;;;;;8.29;100.00;96233.59;4937014;29;20395;-81
2022/12/26 01:15:55;;;;;;;;;;;;;;;8.29;100.00;96238.00;4938330;29;19915;-81
2022/12/26 01:18:20;;;;;;;;;;;;;;;8.34;100.00;96233.13;4913993;29;19923;-81
2022/12/26 01:20:46;;;;;;;;;;;;;;;8.35;100.00;96226.91;4920349;29;19919;-82
2022/12/26 01:23:12;;;;;;;;;;;;;;;8.25;100.00;96225.19;4901933;29;19922;-82
2022/12/26 01:25:38;;;;;;;;;;;;;;;8.14;100.00;96220.13;4907600;29;19914;-82
2022/12/26 01:28:04;;;;;;;;;;;;;;;8.12;100.00;96229.09;4915035;29;19922;-82
2022/12/26 01:30:31;;;;;;;;;;;;;;;8.19;100.00;96238.03;4924058;29;19929;-82
2022/12/26 01:32:59;;;;;;;;;;;;;;;8.22;100.00;96229.91;4910636;29;19930;-83
2022/12/26 01:35:32;;;;;;;;;;;;;;;8.31;100.00;96222.94;4916471;29;20263;-82
2022/12/26 01:37:57;;;;;;;;;;;;;;;8.42;100.00;96205.28;4914966;29;20006;-82
2022/12/26 01:40:23;;;;;;;;;;;;;;;8.47;100.00;96202.19;4905263;29;19954;-81
2022/12/26 01:42:51;;;;;;;;;;;;;;;8.52;100.00;96207.84;4915560;29;20370;-81
2022/12/26 01:45:25;;;;;;;;;;;;;;;8.49;100.00;96219.44;4940974;29;19910;-81
2022/12/26 01:48:02;;;;;;;;;;;;;;;8.54;100.00;96224.22;4918449;29;20340;-81
2022/12/26 01:50:38;;;;;;;;;;;;;;;8.48;100.00;96232.66;4903685;29;19925;-82
2022/12/26 01:53:09;;;;;;;;;;;;;;;8.47;100.00;96239.72;4916997;29;19918;-81
2022/12/26 01:55:36;;;;;;;;;;;;;;;8.49;100.00;96229.09;4921096;29;19925;-81
2022/12/26 01:58:11;;;;;;;;;;;;;;;8.56;100.00;96227.53;4899449;29;19969;-82
2022/12/26 02:00:37;;;;;;;;;;;;;;;8.59;100.00;96219.38;4898037;29;19915;-82
2022/12/26 02:05:59;;;;;;;;;;;;;;;8.70;100.00;96223.59;4914806;29;19926;-81
2022/12/26 02:08:28;;;;;;;;;;;;;;;8.67;100.00;96219.47;4928171;29;19911;-82
2022/12/26 02:11:07;;;;;;;;;;;;;;;8.73;100.00;96231.97;4911237;29;20428;-81
2022/12/26 02:13:34;;;;;;;;;;;;;;;8.68;100.00;96234.22;4920726;29;19914;-82
2022/12/26 02:16:07;;;;;;;;;;;;;;;8.69;100.00;96232.44;4898622;29;19926;-82
2022/12/26 02:18:32;;;;;;;;;;;;;;;8.73;100.00;96231.97;4918678;29;20405;-81
2022/12/26 02:21:10;;;;;;;;;;;;;;;8.74;100.00;96224.94;4905249;29;19977;-82
2022/12/26 02:23:39;;;;;;;;;;;;;;;8.81;100.00;96226.00;4921607;29;19915;-82
2022/12/26 02:26:08;;;;;;;;;;;;;;;8.81;100.00;96219.94;4923467;29;19918;-82
2022/12/26 02:28:36;;;;;;;;;;;;;;;8.79;100.00;96224.50;4902150;29;19921;-81
2022/12/26 02:31:13;;;;;;;;;;;;;;;8.80;100.00;96228.78;4897340;29;20005;-82
2022/12/26 02:33:39;;;;;;;;;;;;;;;8.80;100.00;96229.59;4929253;29;20432;-82
2022/12/26 02:36:23;;;;;;;;;;;;;;;8.82;100.00;96221.56;4946893;29;19918;-81
2022/12/26 02:39:07;;;;;;;;;;;;;;;8.83;100.00;96225.84;4913157;29;19926;-82
2022/12/26 02:41:56;;;;;;;;;;;;;;;8.80;100.00;96218.28;4892491;29;19930;-82
2022/12/26 02:47:21;;;;;;;;;;;;;;;8.49;100.00;96201.09;4912697;29;19990;-82
2022/12/26 03:13:10;;;;;;;;;;;;;;;8.84;100.00;96233.56;4918183;29;19914;-82
2022/12/26 03:18:48;;;;;;;;;;;;;;;8.80;100.00;96231.41;4919118;29;19914;-82
2022/12/26 03:21:15;;;;;;;;;;;;;;;8.73;100.00;96224.13;4908757;29;19915;-82
2022/12/26 03:23:43;;;;;;;;;;;;;;;8.79;100.00;96224.50;4898771;29;20009;-82
2022/12/26 03:26:40;;;;;;;;;;;;;;;8.89;100.00;96228.72;4898421;29;21243;-81
2022/12/26 03:31:54;;;;;;;;;;;;;;;8.91;100.00;96228.56;4912855;29;19915;-81
2022/12/26 03:34:20;;;;;;;;;;;;;;;9.01;100.00;96220.63;4914229;29;20315;-82
2022/12/26 03:37:00;;;;;;;;;;;;;;;9.01;100.00;96229.31;4914720;29;19918;-82
2022/12/26 04:19:31;;;;;;;;;;;;;;;9.02;100.00;96232.75;4926238;29;19915;-81
2022/12/26 04:45:04;;;;;;;;;;;;;;;8.91;100.00;96239.84;4920655;29;19915;-82
2022/12/26 04:47:31;;;;;;;;;;;;;;;9.01;100.00;96241.59;4923352;29;20431;-81
2022/12/26 04:50:12;;;;;;;;;;;;;;;9.03;100.00;96244.91;4908671;29;19927;-82
2022/12/26 04:52:57;;;;;;;;;;;;;;;9.01;100.00;96241.59;4942562;29;19922;-82
2022/12/26 04:55:41;;;;;;;;;;;;;;;9.00;100.00;96245.22;4917605;29;20033;-82
2022/12/26 04:58:06;;;;;;;;;;;;;;;9.03;100.00;96244.91;4909613;29;19922;-82
2022/12/26 05:09:33;;;;;;;;;;;;;;;9.27;100.00;96234.63;4915678;29;19963;-82
2022/12/26 05:11:59;;;;;;;;;;;;;;;9.27;100.00;96236.44;4929565;29;20428;-82
2022/12/26 05:14:25;;;;;;;;;;;;;;;9.24;100.00;96226.22;4917171;29;19965;-82
2022/12/26 05:30:43;;;;;;;;;;;;;;;9.30;100.00;96233.50;4916191;29;19992;-82
2022/12/26 05:35:59;;;;;;;;;;;;;;;9.28;100.00;96243.31;4905331;29;19973;-82
2022/12/26 05:38:25;;;;;;;;;;;;;;;9.34;100.00;96247.97;4904426;29;20385;-83
2022/12/26 05:40:50;;;;;;;;;;;;;;;9.32;100.00;96249.91;4918197;29;19937;-83
2022/12/26 05:43:18;;;;;;;;;;;;;;;9.38;100.00;96241.44;4908050;29;20619;-83
2022/12/26 05:45:44;;;;;;;;;;;;;;;9.38;100.00;96247.50;4905704;29;19915;-83
2022/12/26 05:48:09;;;;;;;;;;;;;;;9.28;100.00;96238.06;4922654;29;20328;-83
2022/12/26 05:50:38;;;;;;;;;;;;;;;9.38;100.00;96233.56;4915778;29;20410;-83
2022/12/26 05:53:04;;;;;;;;;;;;;;;9.34;100.00;96232.22;4913340;29;19910;-83
2022/12/26 05:55:29;;;;;;;;;;;;;;;9.29;100.00;96231.84;4933576;29;20281;-83
2022/12/26 05:57:55;;;;;;;;;;;;;;;9.32;100.00;96234.16;4904434;29;19914;-83
2022/12/26 06:00:20;;;;;;;;;;;;;;;9.28;100.00;96224.94;4904261;29;19942;-83
2022/12/26 06:02:47;;;;;;;;;;;;;;;9.24;100.00;96229.69;4916935;29;19918;-83
2022/12/26 06:05:12;;;;;;;;;;;;;;;9.28;100.00;96225.78;4921997;29;19925;-82
2022/12/26 06:07:38;;;;;;;;;;;;;;;9.30;100.00;96225.63;4917270;29;20301;-83
2022/12/26 06:10:07;;;;;;;;;;;;;;;9.27;100.00;96223.31;4902561;29;20030;-83
2022/12/26 06:12:34;;;;;;;;;;;;;;;9.25;100.00;96210.31;4890969;29;19915;-82
2022/12/26 06:15:01;;;;;;;;;;;;;;;9.20;100.00;96215.22;4912886;29;19911;-83
2022/12/26 06:17:27;;;;;;;;;;;;;;;9.20;100.00;96210.78;4920781;29;20009;-83
2022/12/26 06:19:52;;;;;;;;;;;;;;;9.25;100.00;96218.19;4910780;29;20005;-82
2022/12/26 06:22:18;;;;;;;;;;;;;;;9.27;100.00;96218.88;4903523;29;19915;-83
2022/12/26 06:24:43;;;;;;;;;;;;;;;9.29;100.00;96223.97;4900752;29;20325;-84
2022/12/26 06:27:09;;;;;;;;;;;;;;;9.30;100.00;96223.00;4907799;29;19950;-83
2022/12/26 06:29:36;;;;;;;;;;;;;;;9.25;100.00;96226.06;4907512;29;19918;-84
2022/12/26 06:32:10;;;;;;;;;;;;;;;9.27;100.00;96224.13;4923256;29;19921;-83
2022/12/26 06:34:36;;;;;;;;;;;;;;;9.30;100.00;96238.75;4906721;29;19914;-84
2022/12/26 06:37:02;;;;;;;;;;;;;;;9.36;100.00;96231.09;4910282;29;19922;-82
2022/12/26 06:39:27;;;;;;;;;;;;;;;9.34;100.00;96240.91;4921683;29;19911;-82
2022/12/26 06:42:10;;;;;;;;;;;;;;;9.30;100.00;96241.38;4903354;29;19946;-82
2022/12/26 06:44:46;;;;;;;;;;;;;;;9.26;100.00;96240.84;4900108;29;19978;-82
2022/12/26 06:47:11;;;;;;;;;;;;;;;9.20;100.00;96236.22;4912370;29;19918;-82
2022/12/26 06:49:37;;;;;;;;;;;;;;;9.12;100.00;96238.75;4908252;29;19919;-83
2022/12/26 06:52:02;;;;;;;;;;;;;;;9.24;100.00;96239.34;4918282;29;20353;-82
2022/12/26 06:54:28;;;;;;;;;;;;;;;9.23;100.00;96250.84;4899139;29;19918;-82
2022/12/26 06:56:53;;;;;;;;;;;;;;;9.20;100.00;96250.16;4910840;29;19918;-82
2022/12/26 06:59:19;;;;;;;;;;;;;;;9.20;100.00;96252.78;4906476;29;19911;-82
2022/12/26 07:01:44;;;;;;;;;;;;;;;9.15;100.00;96262.91;4912737;29;20456;-82
2022/12/26 07:04:11;;;;;;;;;;;;;;;9.09;100.00;96250.38;4919778;29;19934;-82
2022/12/26 07:06:37;;;;;;;;;;;;;;;9.06;100.00;96255.94;4901561;29;19914;-82
2022/12/26 07:09:07;;;;;;;;;;;;;;;9.09;100.00;96250.38;4905471;29;19919;-83
2022/12/26 07:11:34;;;;;;;;;;;;;;;9.07;100.00;96252.31;4925741;29;20292;-82
2022/12/26 07:13:59;;;;;;;;;;;;;;;9.12;100.00;96244.84;4918991;29;19911;-83
2022/12/26 07:16:30;;;;;;;;;;;;;;;9.18;100.00;96244.22;4917726;29;19998;-82
2022/12/26 07:18:56;;;;;;;;;;;;;;;9.31;100.00;96254.34;4924004;29;20014;-83
2022/12/26 07:21:22;;;;;;;;;;;;;;;9.21;100.00;96259.66;4914507;29;19922;-82
2022/12/26 07:23:47;;;;;;;;;;;;;;;9.15;100.00;96249.78;4909549;29;19915;-82
2022/12/26 07:26:13;;;;;;;;;;;;;;;9.15;100.00;96246.31;4916080;29;19915;-82
2022/12/26 07:28:38;;;;;;;;;;;;;;;9.05;100.00;96241.13;4924426;29;19918;-83
2022/12/26 07:31:04;;;;;;;;;;;;;;;9.04;100.00;96249.16;4908468;29;19921;-83
2022/12/26 07:33:30;;;;;;;;;;;;;;;9.04;100.00;96247.38;4890864;29;19948;-82
2022/12/26 07:36:02;;;;;;;;;;;;;;;9.12;100.00;96254.47;4914092;29;19919;-82
2022/12/26 07:38:27;;;;;;;;;;;;;;;9.11;100.00;96258.91;4913675;29;20381;-82
2022/12/26 07:40:56;;;;;;;;;;;;;;;9.12;100.00;96257.97;4915442;29;19925;-82
2022/12/26 07:43:22;;;;;;;;;;;;;;;9.03;100.00;96250.97;4897745;29;19958;-83
2022/12/26 07:45:49;;;;;;;;;;;;;;;9.02;100.00;96265.06;4904101;29;19915;-83
2022/12/26 07:48:15;;;;;;;;;;;;;;;9.01;100.00;96254.72;4898975;29;19989;-83
2022/12/26 07:50:40;;;;;;;;;;;;;;;8.96;100.00;96260.41;4919418;29;19977;-83
2022/12/26 07:53:14;;;;;;;;;;;;;;;8.93;100.00;96260.72;4919297;29;20299;-83
2022/12/26 07:55:40;;;;;;;;;;;;;;;8.94;100.00;96267.59;4916507;29;19922;-83
2022/12/26 07:58:06;;;;;;;;;;;;;;;8.93;100.00;96279.88;4911095;29;19929;-83
2022/12/26 08:00:31;;;;;;;;;;;;;;;8.93;100.00;96281.69;4924471;29;19937;-83
2022/12/26 08:02:57;;;;;;;;;;;;;;;8.87;100.00;96271.78;4901813;29;20005;-83
2022/12/26 08:05:22;;;;;;;;;;;;;;;8.83;100.00;96268.63;4916137;29;20385;-82
2022/12/26 08:07:56;;;;;;;;;;;;;;;8.74;100.00;96269.50;4908476;29;19915;-83
2022/12/26 08:10:22;;;;;;;;;;;;;;;8.68;100.00;96273.53;4926198;29;19985;-83
2022/12/26 08:12:47;;;;;;;;;;;;;;;8.67;100.00;96266.66;4901018;29;19993;-83
2022/12/26 08:15:13;;;;;;;;;;;;;;;8.62;100.00;96268.91;4916565;29;20633;-84
2022/12/26 08:17:38;;;;;;;;;;;;;;;8.58;100.00;96275.38;4906051;29;19919;-83
2022/12/26 08:20:04;;;;;;;;;;;;;;;8.58;100.00;96277.19;4910768;29;19969;-83
2022/12/26 08:22:29;;;;;;;;;;;;;;;8.58;100.00;96279.81;4915474;29;19914;-83
2022/12/26 08:24:55;;;;;;;;;;;;;;;8.52;100.00;96278.63;4900368;29;19914;-83
2022/12/26 08:27:20;;;;;;;;;;;;;;;8.42;100.00;96281.28;4917489;29;19962;-82
2022/12/26 08:29:46;;;;;;;;;;;;;;;8.41;100.00;96286.63;4903745;29;20072;-83
2022/12/26 08:32:12;;;;;;;;;;;;;;;8.41;100.00;96289.25;4913451;29;19942;-82
2022/12/26 08:34:37;;;;;;;;;;;;;;;8.52;100.00;96288.25;4917971;29;19975;-82
2022/12/26 08:37:03;;;;;;;;;;;;;;;8.52;100.00;96293.47;4897373;29;19939;-82
2022/12/26 08:39:28;;;;;;;;;;;;;;;8.53;100.00;96303.03;4902361;29;19925;-82
2022/12/26 08:41:54;;;;;;;;;;;;;;;8.42;100.00;96304.84;4887538;29;20476;-82
2022/12/26 08:44:26;;;;;;;;;;;;;;;8.46;100.00;96302.78;4913291;29;19923;-82
2022/12/26 08:46:52;;;;;;;;;;;;;;;8.43;100.00;96309.13;4901534;29;20289;-81
2022/12/26 08:49:20;;;;;;;;;;;;;;;8.38;100.00;96308.72;4900898;29;19918;-82
2022/12/26 08:51:47;;;;;;;;;;;;;;;8.33;100.00;96313.53;4900231;29;20009;-82
2022/12/26 08:54:14;;;;;;;;;;;;;;;8.35;100.00;96321.25;4922596;29;20395;-82
2022/12/26 08:56:40;;;;;;;;;;;;;;;8.24;100.00;96320.44;4920101;29;19970;-82
2022/12/26 08:59:06;;;;;;;;;;;;;;;8.21;100.00;96318.13;4909289;29;19915;-81
2022/12/26 09:01:31;;;;;;;;;;;;;;;8.16;100.00;96315.09;4921868;29;20013;-82
2022/12/26 09:04:06;;;;;;;;;;;;;;;8.06;100.00;96316.94;4896247;29;19929;-82
2022/12/26 09:06:33;;;;;;;;;;;;;;;8.06;100.00;96318.72;4904475;29;19919;-81
2022/12/26 09:08:58;;;;;;;;;;;;;;;8.07;100.00;96328.22;4913621;29;20009;-82
2022/12/26 09:11:27;;;;;;;;;;;;;;;7.98;100.00;96332.50;4914445;29;20014;-82
2022/12/26 09:13:53;;;;;;;;;;;;;;;8.02;100.00;96344.38;4911367;29;19915;-82
2022/12/26 09:16:21;;;;;;;;;;;;;;;7.93;100.00;96339.97;4930665;29;20395;-82
2022/12/26 09:18:47;;;;;;;;;;;;;;;7.94;100.00;96349.47;4927642;29;19914;-82
2022/12/26 09:21:13;;;;;;;;;;;;;;;8.00;100.00;96343.69;4909823;29;19915;-82
2022/12/26 09:23:40;;;;;;;;;;;;;;;7.93;100.00;96340.78;4909755;29;19922;-82
2022/12/26 09:26:06;;;;;;;;;;;;;;;7.90;100.00;96332.41;4894042;29;20383;-84
2022/12/26 09:28:32;;;;;;;;;;;;;;;7.98;100.00;96356.06;4910226;29;20285;-83
2022/12/26 09:30:58;;;;;;;;;;;;;;;7.96;100.00;96363.25;4916089;29;19925;-83
2022/12/26 09:33:24;;;;;;;;;;;;;;;8.01;100.00;96374.97;4905862;29;20272;-83
2022/12/26 09:35:49;;;;;;;;;;;;;;;8.01;100.00;96363.66;4900849;29;19953;-83
2022/12/26 09:38:15;;;;;;;;;;;;;;;7.96;100.00;96365.88;4915903;29;19966;-83
2022/12/26 09:41:01;;;;;;;;;;;;;;;8.02;100.00;96360.91;4909372;29;19921;-84
2022/12/26 09:43:29;;;;;;;;;;;;;;;8.02;100.00;96366.16;4927161;29;19957;-83
2022/12/26 09:45:55;;;;;;;;;;;;;;;8.04;100.00;96373.84;4927757;29;19918;-84
2022/12/26 09:48:27;;;;;;;;;;;;;;;8.09;100.00;96381.31;4906143;29;19922;-82
2022/12/26 09:50:55;;;;;;;;;;;;;;;8.07;100.00;96381.44;4904267;29;19919;-84
2022/12/26 09:53:30;;;;;;;;;;;;;;;8.03;100.00;96383.50;4924004;29;19914;-83
2022/12/26 09:56:05;;;;;;;;;;;;;;;7.98;100.00;96387.50;4927422;29;19962;-83
2022/12/26 09:58:34;;;;;;;;;;;;;;;7.90;100.00;96400.47;4915725;29;20424;-83
2022/12/26 10:01:04;;;;;;;;;;;;;;;7.88;100.00;96405.00;4921109;29;20188;-83
2022/12/26 10:03:35;;;;;;;;;;;;;;;7.90;100.00;96408.34;4936159;29;19918;-82
2022/12/26 10:06:10;;;;;;;;;;;;;;;7.86;100.00;96404.34;4909072;29;20373;-80
2022/12/26 10:08:40;;;;;;;;;;;;;;;7.95;100.00;96403.50;4914668;29;19915;-83
2022/12/26 10:11:14;;;;;;;;;;;;;;;7.99;100.00;96415.38;4911395;29;19950;-83
2022/12/26 10:13:49;;;;;;;;;;;;;;;8.02;100.00;96420.31;4912869;29;19922;-83
2022/12/26 10:16:17;;;;;;;;;;;;;;;8.06;100.00;96424.31;4899502;29;20030;-83
2022/12/26 10:18:45;;;;;;;;;;;;;;;8.05;100.00;96438.38;4926032;29;20332;-83
2022/12/26 10:21:38;;;;;;;;;;;;;;;7.90;100.00;96452.84;4914323;29;20329;-83
2022/12/26 10:24:15;;;;;;;;;;;;;;;7.96;100.00;96460.16;4917519;29;19925;-83
2022/12/26 10:26:45;;;;;;;;;;;;;;;7.82;100.00;96457.94;4917954;29;19939;-83
2022/12/26 10:29:16;;;;;;;;;;;;;;;7.76;100.00;96478.47;4918034;29;19934;-81
2022/12/26 10:31:44;;;;;;;;;;;;;;;7.77;100.00;96485.34;4947287;29;20176;-81
2022/12/26 10:34:10;;;;;;;;;;;;;;;7.76;100.00;96483.69;4923554;29;19947;-80
2022/12/26 10:36:41;;;;;;;;;;;;;;;7.72;100.00;96484.94;4895186;29;19915;-81
2022/12/26 10:39:13;;;;;;;;;;;;;;;7.69;100.00;96495.69;4921584;29;19969;-80
2022/12/26 10:41:45;;;;;;;;;;;;;;;7.69;100.00;96500.91;4929579;29;19923;-80
2022/12/26 10:44:15;;;;;;;;;;;;;;;7.69;100.00;96495.69;4911331;29;19918;-81
2022/12/26 10:46:53;;;;;;;;;;;;;;;7.70;100.00;96493.88;4905789;29;19919;-84
2022/12/26 10:49:23;;;;;;;;;;;;;;;7.71;100.00;96491.16;4922747;29;19918;-87
2022/12/26 10:51:50;;;;;;;;;;;;;;;7.70;100.00;96496.50;4920265;29;20428;-82
2022/12/26 10:54:17;;;;;;;;;;;;;;;7.70;100.00;96499.13;4916139;29;19915;-83
2022/12/26 10:56:47;;;;;;;;;;;;;;;7.73;100.00;96497.06;4913896;29;19995;-81
2022/12/26 10:59:16;;;;;;;;;;;;;;;7.71;100.00;96506.00;4917480;29;19914;-81
2022/12/26 11:01:46;;;;;;;;;;;;;;;7.73;100.00;96518.00;4903428;29;19918;-89
2022/12/26 11:07:16;;;;;;;;;;;;;;;7.73;100.00;96511.94;4921832;28;19907;-89
2022/12/26 11:09:50;;;;;;;;;;;;;;;7.73;100.00;96512.75;4923251;29;19997;-89
2022/12/26 11:13:01;;;;;;;5.03;2.87;;;;;;;7.72;100.00;96510.28;5074335;28;20640;-90
2022/12/26 11:19:18;;;;;;;2.27;1.40;;;;;;;7.75;100.00;96520.50;5062641;28;20044;-90
2022/12/26 11:21:47;;;;;;;3.60;1.77;;;;;;;7.76;100.00;96522.97;5071894;28;20451;-89
2022/12/26 11:24:19;;;;;;;6.00;2.00;;;;;;;7.73;100.00;96512.75;5079098;28;20112;-90
2022/12/26 11:26:45;;;;;;;3.30;2.00;;;;;;;7.73;100.00;96512.75;5077612;28;20028;-90
2022/12/26 11:29:16;;;;;;;4.37;1.83;;;;;;;7.74;100.00;96522.25;5058231;28;20128;-89
2022/12/26 11:31:55;;;;;;;3.27;1.90;;;;;;;7.76;100.00;96528.19;5054572;28;20037;-89
2022/12/26 11:34:33;;;;;;;3.00;1.60;;;;;;;7.78;100.00;96521.06;5074754;28;20037;-90
2022/12/26 11:36:59;;;;;;;2.37;1.30;;;;;;;7.83;100.00;96514.56;5067897;28;20483;-91
2022/12/26 11:39:38;;;;;;;2.57;1.47;;;;;;;7.81;100.00;96499.00;5058026;28;20063;-91
2022/12/26 11:42:17;;;;;;;3.33;1.60;;;;;;;7.82;100.00;96499.84;5060001;28;20040;-90
2022/12/26 11:45:41;;;;;;;3.33;1.87;;;;;;;7.79;100.00;96501.75;5075579;28;20029;-91
2022/12/26 11:48:35;;;;;;;1.58;1.00;;;;;;;7.85;100.00;96489.09;5067840;28;20032;-89
2022/12/26 11:51:01;;;;;;;4.70;2.60;;;;;;;7.83;100.00;96491.00;5083288;28;20039;-91
2022/12/26 11:53:42;;;;;;;5.63;2.23;;;;;;;7.86;100.00;96488.13;5085163;28;20041;-91
2022/12/26 11:56:08;;;;;;;7.73;2.90;;;;;;;7.85;100.00;96482.06;5073409;28;20029;-91
2022/12/26 11:58:38;;;;;;;6.27;3.33;;;;;;;7.85;100.00;96462.91;5086361;28;20055;-92
2022/12/26 12:01:06;;;;;;;6.70;3.23;;;;;;;7.88;100.00;96446.91;5083937;28;20045;-90
2022/12/26 12:03:40;;;;;;;13.00;6.70;;;;;;;7.86;100.00;96433.97;5060453;28;20033;-90
2022/12/26 12:06:20;;;;;;;9.03;4.73;;;;;;;7.84;100.00;96448.16;5072466;28;20055;-92
2022/12/26 12:09:04;;;;;;;10.90;4.97;;;;;;;7.82;100.00;96471.88;5051675;28;20577;-91
2022/12/26 12:12:01;;;;;;;16.00;8.93;;;;;;;7.81;100.00;96488.50;5052090;28;20041;-93
2022/12/26 12:15:20;;;;;;;10.67;4.63;;;;;;;7.83;100.00;96493.63;5065502;28;20044;-91
2022/12/26 12:21:34;;;;;;;6.17;3.00;;;;;;;7.87;100.00;96466.22;5066027;28;20127;-91
2022/12/26 12:24:25;;;;;;;7.40;3.40;;;;;;;7.83;100.00;96480.53;5067959;28;20045;-91
2022/12/26 12:27:10;;;;;;;8.23;4.97;;;;;;;7.83;100.00;96485.78;5055495;28;20532;-90
2022/12/26 12:29:39;;;;;;;7.23;4.27;;;;;;;7.80;100.00;96492.09;5055373;28;20044;-89
2022/12/26 12:32:22;;;;;;;6.53;3.47;;;;;;;7.86;100.00;96475.03;5038977;28;20021;-90
2022/12/26 12:35:04;;;;;;;6.40;3.35;;;;;;;7.87;100.00;96474.88;5056215;28;20079;-90
2022/12/26 12:38:23;;;;;;;7.87;4.20;;;;;;;7.83;100.00;96464.84;5054932;28;20101;-90
2022/12/26 12:41:12;;;;;;;6.00;3.37;;;;;;;7.83;100.00;96459.59;5014172;28;20044;-90
2022/12/26 12:43:41;;;;;;;9.20;3.80;;;;;;;7.87;100.00;96471.44;5014093;28;20549;-90
2022/12/26 12:46:36;;;;;;;6.10;3.73;;;;;;;7.88;100.00;96468.69;5057058;28;20033;-93
2022/12/26 12:53:05;;;;;;;6.33;3.17;;;;;;;7.94;100.00;96462.06;5056904;28;20055;-90
2022/12/26 12:55:56;;;;;;;8.53;3.57;;;;;;;7.98;100.00;96459.06;5046193;28;20136;-91
2022/12/26 12:58:54;;;;;;;6.97;3.33;;;;;;;8.00;100.00;96470.22;5056613;28;20037;-90
2022/12/26 13:01:28;;;;;;;6.23;3.37;;;;;;;8.01;100.00;96468.41;5050272;28;20043;-90
2022/12/26 13:04:23;;;;;;;5.33;3.33;;;;;;;7.95;100.00;96469.81;5048397;28;20807;-90
2022/12/26 13:06:57;;;;;;;6.60;3.50;;;;;;;7.98;100.00;96473.91;5070376;28;20039;-90
2022/12/26 13:09:43;;;;;;;6.20;3.33;;;;;;;7.98;100.00;96480.00;5050935;28;20048;-91
2022/12/26 13:12:19;;;;;;;5.80;2.87;;;;;;;8.01;100.00;96473.66;5055525;28;20132;-91
2022/12/26 13:15:25;;;;;;;7.10;3.47;;;;;;;7.98;100.00;96464.28;5038092;28;20437;-90
2022/12/26 13:17:58;;;;;;;5.97;3.93;;;;;;;7.97;100.00;96469.66;5060408;28;20091;-91
2022/12/26 13:20:41;;;;;;;5.45;3.55;;;;;;;7.97;100.00;96478.34;5035367;28;20510;-93
2022/12/26 13:26:18;;;;;;;6.47;4.35;;;;;;;8.03;100.00;96454.22;5054587;28;20041;-91
2022/12/26 13:29:27;;;;;;;6.80;4.38;;;;;;;8.00;100.00;96464.97;5038000;28;20138;-90
2022/12/26 13:31:53;;;;;;;7.20;3.43;;;;;;;8.01;100.00;96469.25;5032708;28;20067;-90
2022/12/26 13:34:21;;;;;;;6.20;3.97;;;;;;;8.05;100.00;96475.06;5045593;28;20536;-90
2022/12/26 13:36:53;;;;;;;5.93;3.53;;;;;;;8.03;100.00;96475.19;5053199;28;20029;-90
2022/12/26 13:39:29;;;;;;;7.10;3.47;;;;;;;8.03;100.00;96479.59;5051349;28;20045;-90
2022/12/26 13:44:40;;;;;;;6.80;3.10;;;;;;;8.06;100.00;96476.69;5052507;28;20033;-90
2022/12/26 13:47:31;;;;;;;5.80;2.53;;;;;;;8.00;100.00;96457.13;5074361;28;20100;-90
2022/12/26 13:50:19;;;;;;;4.40;1.93;;;;;;;7.98;100.00;96463.44;5054147;28;20041;-91
2022/12/26 13:52:45;;;;;;;6.43;2.33;;;;;;;7.97;100.00;96467.88;5037050;28;20079;-90
2022/12/26 13:55:29;;;;;;;3.23;1.47;;;;;;;7.99;100.00;96463.31;5052937;28;20072;-90
2022/12/26 13:58:29;;;;;;;3.97;1.93;;;;;;;7.98;100.00;96453.81;5064252;28;20127;-90
2022/12/26 14:01:03;;;;;;;4.60;1.70;;;;;;;7.98;100.00;96445.97;5047588;28;20502;-90
2022/12/26 14:03:43;;;;;;;5.23;2.17;;;;;;;7.94;100.00;96446.34;5045530;28;20048;-90
2022/12/26 14:06:22;;;;;;;3.20;1.73;;;;;;;7.94;100.00;96441.13;5070424;28;20084;-90
2022/12/26 14:09:05;;;;;;;4.17;2.03;;;;;;;7.98;100.00;96455.59;5062360;28;20133;-90
2022/12/26 14:11:51;;;;;;;6.05;2.53;;;;;;;7.94;100.00;96459.44;5060186;28;20436;-90
2022/12/26 14:14:41;;;;;;;4.07;1.83;;;;;;;7.92;100.00;96456.16;5040176;28;20056;-90
2022/12/26 14:17:31;;;;;;;4.37;1.93;;;;;;;7.89;100.00;96457.25;5048559;28;20124;-90
2022/12/26 14:19:59;;;;;;;2.63;1.27;;;;;;;7.86;100.00;96451.47;5045018;28;20685;-90
2022/12/26 14:25:48;;;;;;;2.90;1.60;;;;;;;7.87;100.00;96455.72;5051863;28;20072;-90
2022/12/26 14:28:31;;;;;;;3.47;1.40;;;;;;;7.87;100.00;96445.25;5036210;28;20039;-91
2022/12/26 14:31:08;;;;;;;2.80;1.50;;;;;;;7.84;100.00;96450.78;5063201;28;20039;-91
2022/12/26 14:37:46;;;;;;;4.13;1.50;;;;;;;7.86;100.00;96451.47;5051493;28;20088;-91
2022/12/26 14:40:24;;;;;;;3.17;1.40;;;;;;;7.86;100.00;96435.75;5058622;28;20421;-91
2022/12/26 14:43:09;;;;;;;4.23;1.50;;;;;;;7.83;100.00;96449.94;5045480;28;20039;-90
2022/12/26 14:45:49;;;;;;;6.37;3.10;;;;;;;7.84;100.00;96445.53;5051212;28;20487;-93
2022/12/26 14:48:15;;;;;;;6.30;2.20;;;;;;;7.80;100.00;96437.13;5043205;28;20044;-91
2022/12/26 14:50:41;;;;;;;4.53;2.10;;;;;;;7.81;100.00;96444.00;5054118;28;20036;-91
2022/12/26 14:53:30;;;;;;;5.33;2.77;;;;;;;7.77;100.00;96435.59;5045409;28;20524;-92
2022/12/26 14:56:10;;;;;;;6.00;2.90;;;;;;;7.80;100.00;96427.47;5040600;28;20029;-91
2022/12/26 14:58:46;;;;;;;3.33;1.60;;;;;;;7.75;100.00;96427.06;5054611;28;20554;-91
2022/12/26 15:01:12;;;;;;;6.87;2.87;;;;;;;7.73;100.00;96423.75;5047341;28;20029;-91
2022/12/26 15:04:08;;;;;;;4.37;1.30;;;;;;;7.73;100.00;96426.38;5035643;28;20044;-91
2022/12/26 15:07:01;;;;;;;3.27;1.63;;;;;;;7.72;100.00;96429.97;5041361;28;20036;-91
2022/12/26 15:09:58;;;;;;;3.13;1.05;;;;;;;7.79;100.00;96423.22;5027616;28;20045;-91
2022/12/26 15:12:42;;;;;;;4.53;1.60;;;;;;;7.83;100.00;96418.53;5039629;28;20047;-91
2022/12/26 15:15:31;;;;;;;3.83;1.70;;;;;;;7.78;100.00;96421.56;5027086;28;20067;-91
2022/12/26 15:18:05;;;;;;;5.37;2.03;;;;;;;7.74;100.00;96430.63;5044012;28;20199;-91
2022/12/26 15:21:16;;;;;;;4.90;2.20;;;;;;;7.75;100.00;96445.41;5044047;28;20117;-91
2022/12/26 15:27:21;;;;;;;4.70;2.17;;;;;;;7.74;100.00;96414.09;5043231;28;20079;-91